Time;durP1;ratioP1;P1;durP2;ratioP2;P2;SDS_P1;SDS_P2;PMS_P1;PMS_P2;Temp;Humidity;BMP_temperature;BMP_pressure;BME280_temperature;BME280_humidity;BME280_pressure;Samples;Min_cycle;Max_cycle;Signal;HPM_P1;HPM_P2
2024/02/21 00:01:47;;;;;;;87.60;46.35;;;;;;;6.30;100.00;100188.50;5095043;28;20443;-72
2024/02/21 00:04:16;;;;;;;77.45;43.92;;;;;;;6.38;100.00;100178.72;5111552;28;20450;-72
2024/02/21 00:06:41;;;;;;;88.95;47.75;;;;;;;6.48;100.00;100189.75;5110589;28;20036;-72
2024/02/21 00:09:07;;;;;;;88.45;47.33;;;;;;;6.50;100.00;100179.19;5111959;28;20447;-72
2024/02/21 00:11:32;;;;;;;93.72;48.85;;;;;;;6.59;100.00;100188.56;5111267;28;20030;-72
2024/02/21 00:13:59;;;;;;;90.75;49.88;;;;;;;6.56;100.00;100178.03;5092915;28;20024;-72
2024/02/21 00:16:24;;;;;;;88.68;47.72;;;;;;;6.64;100.00;100179.34;5073255;28;20040;-72
2024/02/21 00:18:49;;;;;;;85.15;47.15;;;;;;;6.64;100.00;100171.00;5091195;28;20043;-72
2024/02/21 00:21:18;;;;;;;85.00;46.58;;;;;;;6.49;100.00;100185.06;5091640;28;20032;-72
2024/02/21 00:23:45;;;;;;;91.03;47.65;;;;;;;6.54;100.00;100171.09;5091033;28;20031;-72
2024/02/21 00:26:13;;;;;;;82.72;44.55;;;;;;;6.64;100.00;100173.78;5110545;28;20411;-72
2024/02/21 00:28:38;;;;;;;81.60;45.65;;;;;;;6.68;100.00;100171.28;5093353;28;20522;-72
2024/02/21 00:31:04;;;;;;;76.90;45.70;;;;;;;6.72;100.00;100166.78;5111944;28;20059;-72
2024/02/21 00:33:30;;;;;;;77.80;45.00;;;;;;;6.70;100.00;100160.69;5111412;28;20107;-72
2024/02/21 00:35:56;;;;;;;90.72;48.97;;;;;;;6.69;100.00;100157.06;5109003;28;20360;-72
2024/02/21 00:38:21;;;;;;;83.85;44.28;;;;;;;6.71;100.00;100151.22;5111764;28;20028;-72
2024/02/21 00:40:46;;;;;;;78.72;44.78;;;;;;;6.43;100.00;100151.72;5111627;28;20031;-72
2024/02/21 00:43:12;;;;;;;79.35;45.33;;;;;;;6.54;100.00;100151.63;5111849;28;20024;-72
2024/02/21 00:45:38;;;;;;;79.05;44.33;;;;;;;6.51;100.00;100153.03;5085705;28;20027;-71
2024/02/21 00:48:04;;;;;;;89.30;47.33;;;;;;;6.50;100.00;100156.13;5110590;28;20114;-72
2024/02/21 00:50:29;;;;;;;82.40;44.60;;;;;;;6.54;100.00;100154.41;5110253;28;20118;-72
2024/02/21 00:52:55;;;;;;;86.28;43.80;;;;;;;6.45;100.00;100149.47;5107030;28;20165;-72
2024/02/21 00:55:20;;;;;;;90.15;45.95;;;;;;;6.58;100.00;100156.34;5102772;28;20038;-72
2024/02/21 00:57:46;;;;;;;84.28;44.17;;;;;;;6.64;100.00;100137.66;5092813;28;20052;-72
2024/02/21 01:00:12;;;;;;;79.60;43.10;;;;;;;6.76;100.00;100142.84;5092237;28;20034;-72
2024/02/21 01:02:38;;;;;;;89.03;44.50;;;;;;;6.82;100.00;100141.66;5110720;28;20424;-72
2024/02/21 01:05:03;;;;;;;87.57;44.50;;;;;;;6.90;100.00;100137.41;5080871;28;20032;-72
2024/02/21 01:07:29;;;;;;;89.00;47.42;;;;;;;6.86;100.00;100128.81;5110960;28;20034;-72
2024/02/21 01:09:55;;;;;;;90.57;48.97;;;;;;;6.84;100.00;100139.41;5104263;28;20023;-72
2024/02/21 01:12:20;;;;;;;89.88;48.03;;;;;;;6.75;100.00;100130.03;5110009;28;20031;-72
2024/02/21 01:14:49;;;;;;;89.97;48.30;;;;;;;6.79;100.00;100127.50;5109687;28;20092;-72
2024/02/21 01:17:14;;;;;;;88.43;46.40;;;;;;;6.83;100.00;100126.63;5088007;28;20444;-72
2024/02/21 01:19:40;;;;;;;82.10;47.58;;;;;;;6.72;100.00;100142.59;5095085;28;20107;-72
2024/02/21 01:22:05;;;;;;;95.00;50.10;;;;;;;6.69;100.00;100140.38;5109962;28;20035;-72
2024/02/21 01:24:31;;;;;;;92.32;47.67;;;;;;;6.69;100.00;100134.81;5108953;28;20042;-72
2024/02/21 01:26:56;;;;;;;97.75;50.70;;;;;;;6.62;100.00;100134.34;5072491;28;20169;-72
2024/02/21 01:29:22;;;;;;;90.93;50.95;;;;;;;6.62;100.00;100131.56;5090147;28;20070;-72
2024/02/21 01:31:47;;;;;;;89.68;47.65;;;;;;;6.60;100.00;100122.69;5106955;28;20031;-72
2024/02/21 01:34:13;;;;;;;88.40;48.47;;;;;;;6.66;100.00;100124.28;5091027;28;20031;-72
2024/02/21 01:36:39;;;;;;;85.47;45.42;;;;;;;6.77;100.00;100124.19;5109642;28;20024;-72
2024/02/21 01:39:05;;;;;;;96.13;48.08;;;;;;;6.64;100.00;100123.75;5110640;28;20034;-72
2024/02/21 01:41:31;;;;;;;86.03;45.78;;;;;;;6.36;100.00;100125.41;5104276;28;20424;-72
2024/02/21 01:43:57;;;;;;;94.22;47.15;;;;;;;6.21;100.00;100127.19;5090337;28;20028;-72
2024/02/21 01:46:27;;;;;;;89.18;47.70;;;;;;;6.28;100.00;100111.03;5083066;28;20024;-72
2024/02/21 01:48:53;;;;;;;95.97;47.47;;;;;;;6.39;100.00;100116.47;5109077;28;20069;-72
2024/02/21 01:51:19;;;;;;;92.65;48.17;;;;;;;6.36;100.00;100123.47;5083552;28;20028;-72
2024/02/21 01:53:45;;;;;;;91.10;49.47;;;;;;;6.48;100.00;100119.47;5090189;28;20028;-72
2024/02/21 01:56:13;;;;;;;89.43;45.67;;;;;;;6.55;100.00;100120.78;5073897;28;20088;-72
2024/02/21 01:58:41;;;;;;;96.53;48.17;;;;;;;6.57;100.00;100112.97;5103597;28;20054;-72
2024/02/21 02:01:07;;;;;;;87.45;46.88;;;;;;;6.63;100.00;100112.91;5093508;28;20027;-72
2024/02/21 02:03:32;;;;;;;93.40;47.90;;;;;;;6.48;100.00;100125.03;5091447;28;20488;-72
2024/02/21 02:05:58;;;;;;;90.80;48.53;;;;;;;6.17;100.00;100104.69;5090329;28;20089;-72
2024/02/21 02:08:23;;;;;;;91.18;46.72;;;;;;;6.20;100.00;100113.56;5110885;28;20034;-72
2024/02/21 02:10:49;;;;;;;89.25;46.05;;;;;;;6.26;100.00;100118.78;5110024;28;20028;-72
2024/02/21 02:13:15;;;;;;;82.05;44.70;;;;;;;6.22;100.00;100108.56;5093521;28;20032;-72
2024/02/21 02:15:45;;;;;;;95.20;48.83;;;;;;;6.16;100.00;100107.78;5106703;28;20034;-72
2024/02/21 02:18:11;;;;;;;95.13;48.42;;;;;;;6.15;100.00;100106.94;5071814;28;20027;-72
2024/02/21 02:20:38;;;;;;;85.10;43.72;;;;;;;6.16;100.00;100105.81;5071872;28;20039;-72
2024/02/21 02:23:27;;;;;;;85.78;44.33;;;;;;;6.23;100.00;100107.47;5092756;28;20560;-72
2024/02/21 02:25:53;;;;;;;83.80;45.75;;;;;;;6.25;100.00;100110.75;5104163;28;20037;-72
2024/02/21 02:28:19;;;;;;;81.15;48.13;;;;;;;6.33;100.00;100107.34;5081597;28;20065;-72
2024/02/21 02:30:45;;;;;;;84.50;49.10;;;;;;;6.29;100.00;100107.13;5092090;28;20520;-72
2024/02/21 02:33:11;;;;;;;82.88;45.40;;;;;;;6.40;100.00;100105.06;5087882;28;20032;-72
2024/02/21 02:35:36;;;;;;;82.68;45.65;;;;;;;6.38;100.00;100106.47;5078353;28;20487;-72
2024/02/21 02:38:03;;;;;;;83.85;44.53;;;;;;;6.39;100.00;100100.63;5109846;28;20027;-72
2024/02/21 02:40:28;;;;;;;80.03;41.40;;;;;;;6.29;100.00;100106.28;5091518;28;20057;-72
2024/02/21 02:42:57;;;;;;;72.95;41.28;;;;;;;6.24;100.00;100100.78;5091766;28;20012;-72
2024/02/21 02:45:23;;;;;;;66.88;37.30;;;;;;;6.22;100.00;100105.81;5108044;28;20030;-72
2024/02/21 02:47:49;;;;;;;69.18;37.65;;;;;;;6.35;100.00;100099.56;5097233;28;20039;-72
2024/02/21 02:50:15;;;;;;;66.95;34.88;;;;;;;6.36;100.00;100103.16;5110049;28;20023;-72
2024/02/21 02:52:40;;;;;;;61.45;33.92;;;;;;;6.35;100.00;100098.72;5109556;28;20024;-72
2024/02/21 02:55:06;;;;;;;60.42;32.30;;;;;;;6.38;100.00;100098.97;5091570;28;20023;-72
2024/02/21 02:57:33;;;;;;;55.75;32.08;;;;;;;6.43;100.00;100103.66;5109129;28;20508;-72
2024/02/21 02:59:58;;;;;;;63.28;36.08;;;;;;;6.34;100.00;100094.28;5101354;28;20032;-72
2024/02/21 03:02:24;;;;;;;73.15;39.17;;;;;;;6.41;100.00;100090.06;5089299;28;20036;-72
2024/02/21 03:04:50;;;;;;;68.88;37.03;;;;;;;6.55;100.00;100106.88;5071472;28;20032;-72
2024/02/21 03:07:16;;;;;;;73.47;38.50;;;;;;;6.53;100.00;100111.06;5100152;28;20408;-72
2024/02/21 03:09:43;;;;;;;73.25;39.05;;;;;;;6.40;100.00;100095.91;5093796;28;20056;-72
2024/02/21 03:12:09;;;;;;;76.07;39.55;;;;;;;6.25;100.00;100108.81;5080985;28;20034;-72
2024/02/21 03:14:35;;;;;;;83.50;43.35;;;;;;;6.30;100.00;100102.38;5095321;28;20026;-72
2024/02/21 03:17:00;;;;;;;73.22;41.10;;;;;;;6.38;100.00;100103.69;5110258;28;20031;-72
2024/02/21 03:19:26;;;;;;;72.78;39.67;;;;;;;6.38;100.00;100093.41;5094809;28;20060;-72
2024/02/21 03:21:52;;;;;;;66.13;36.67;;;;;;;6.38;100.00;100107.31;5092000;28;20042;-72
2024/02/21 03:24:21;;;;;;;75.30;39.60;;;;;;;6.57;100.00;100103.78;5103858;28;20042;-71
2024/02/21 03:26:48;;;;;;;70.18;38.67;;;;;;;6.63;100.00;100094.31;5102645;28;20478;-70
2024/02/21 03:29:14;;;;;;;75.15;39.80;;;;;;;6.74;100.00;100106.13;5113131;28;20020;-71
2024/02/21 03:31:40;;;;;;;65.55;34.03;;;;;;;6.67;100.00;100092.59;5094056;28;20123;-70
2024/02/21 03:34:05;;;;;;;60.47;33.88;;;;;;;6.67;100.00;100097.31;5112992;28;20536;-70
2024/02/21 03:36:31;;;;;;;58.95;33.85;;;;;;;6.73;100.00;100098.91;5111443;28;20495;-70
2024/02/21 03:38:56;;;;;;;58.17;32.50;;;;;;;6.74;100.00;100095.00;5108528;28;20385;-71
2024/02/21 03:41:22;;;;;;;60.72;33.92;;;;;;;6.78;100.00;100095.25;5093132;28;20109;-70
2024/02/21 03:43:47;;;;;;;59.13;32.83;;;;;;;6.78;100.00;100098.88;5112766;28;20035;-70
2024/02/21 03:46:14;;;;;;;59.00;32.92;;;;;;;6.40;100.00;100095.91;5087427;28;20039;-71
2024/02/21 03:48:39;;;;;;;55.97;33.50;;;;;;;6.25;100.00;100100.47;5110891;28;20028;-70
2024/02/21 03:51:05;;;;;;;61.67;36.97;;;;;;;6.19;100.00;100098.88;5112897;28;20510;-71
2024/02/21 03:53:30;;;;;;;65.93;35.55;;;;;;;6.24;100.00;100098.81;5101204;28;20504;-70
2024/02/21 03:55:56;;;;;;;65.47;37.50;;;;;;;6.23;100.00;100101.91;5094525;28;20023;-70
2024/02/21 03:58:22;;;;;;;57.00;32.85;;;;;;;6.24;100.00;100109.91;5078308;28;20044;-70
2024/02/21 04:00:47;;;;;;;60.15;34.83;;;;;;;6.30;100.00;100106.00;5101760;28;20050;-71
2024/02/21 04:03:13;;;;;;;57.55;31.17;;;;;;;6.29;100.00;100107.13;5111624;28;20479;-71
2024/02/21 04:05:39;;;;;;;55.22;30.88;;;;;;;6.18;100.00;100100.00;5110686;28;20024;-70
2024/02/21 04:08:07;;;;;;;57.92;30.48;;;;;;;6.37;100.00;100107.59;5110161;28;20028;-70
2024/02/21 04:10:33;;;;;;;56.58;30.33;;;;;;;6.40;100.00;100105.06;5099219;28;20019;-70
2024/02/21 04:12:59;;;;;;;56.95;31.48;;;;;;;6.43;100.00;100104.47;5108995;28;20039;-70
2024/02/21 04:15:24;;;;;;;57.42;32.25;;;;;;;6.42;100.00;100102.00;5112287;28;20039;-70
2024/02/21 04:17:50;;;;;;;51.75;29.38;;;;;;;6.40;100.00;100096.72;5093301;28;20027;-71
2024/02/21 04:20:16;;;;;;;55.00;31.27;;;;;;;6.30;100.00;100100.44;5093857;28;20118;-70
2024/02/21 04:22:45;;;;;;;62.38;35.13;;;;;;;6.35;100.00;100107.06;5112135;28;20107;-70
2024/02/21 04:25:11;;;;;;;58.40;34.80;;;;;;;6.27;100.00;100101.00;5095429;28;20468;-70
2024/02/21 04:27:40;;;;;;;54.50;32.92;;;;;;;6.39;100.00;100114.53;5104243;28;20019;-70
2024/02/21 04:30:06;;;;;;;61.40;33.50;;;;;;;6.22;100.00;100097.47;5098529;28;20472;-70
2024/02/21 04:32:32;;;;;;;66.45;36.58;;;;;;;6.41;100.00;100126.19;5091614;28;20034;-70
2024/02/21 04:34:58;;;;;;;68.60;37.53;;;;;;;6.21;100.00;100109.66;5092292;28;20020;-72
2024/02/21 04:37:24;;;;;;;66.13;35.33;;;;;;;6.33;100.00;100115.69;5081762;28;20123;-72
2024/02/21 04:39:50;;;;;;;65.72;36.67;;;;;;;6.19;100.00;100118.31;5091605;28;20058;-72
2024/02/21 04:42:16;;;;;;;58.22;33.55;;;;;;;6.20;100.00;100108.00;5073468;28;20051;-72
2024/02/21 04:44:41;;;;;;;59.47;34.70;;;;;;;6.06;100.00;100116.19;5083236;28;20023;-73
2024/02/21 04:47:07;;;;;;;66.15;36.10;;;;;;;5.99;100.00;100114.53;5103454;28;20099;-73
2024/02/21 04:49:33;;;;;;;73.95;40.60;;;;;;;6.04;100.00;100111.75;5111477;28;20055;-73
2024/02/21 04:51:59;;;;;;;61.83;35.55;;;;;;;5.96;100.00;100112.34;5093168;28;20035;-73
2024/02/21 04:54:24;;;;;;;58.85;35.22;;;;;;;5.91;100.00;100112.34;5110341;28;20028;-73
2024/02/21 04:56:50;;;;;;;56.58;33.08;;;;;;;5.98;100.00;100112.88;5110468;28;20048;-73
2024/02/21 04:59:16;;;;;;;60.83;33.55;;;;;;;6.11;100.00;100113.38;5104390;28;20031;-73
2024/02/21 05:01:41;;;;;;;52.40;31.83;;;;;;;6.22;100.00;100114.94;5092209;28;20027;-73
2024/02/21 05:04:07;;;;;;;48.85;28.55;;;;;;;6.17;100.00;100120.56;5090858;28;20027;-73
2024/02/21 05:06:38;;;;;;;54.40;31.90;;;;;;;6.17;100.00;100121.38;5090598;28;20032;-73
2024/02/21 05:09:04;;;;;;;58.47;31.90;;;;;;;6.08;100.00;100111.97;5108504;28;20085;-73
2024/02/21 05:11:30;;;;;;;52.60;29.65;;;;;;;6.16;100.00;100125.28;5106815;28;20035;-73
2024/02/21 05:13:55;;;;;;;51.95;29.30;;;;;;;6.18;100.00;100125.81;5088454;28;20444;-73
2024/02/21 05:16:21;;;;;;;47.22;29.55;;;;;;;6.13;100.00;100120.28;5091087;28;20019;-73
2024/02/21 05:18:46;;;;;;;54.65;30.00;;;;;;;6.11;100.00;100139.22;5110535;28;20031;-73
2024/02/21 05:21:12;;;;;;;51.47;28.88;;;;;;;6.19;100.00;100137.75;5091414;28;20381;-73
2024/02/21 05:23:39;;;;;;;46.72;26.90;;;;;;;6.31;100.00;100132.66;5104483;28;20038;-73
2024/02/21 05:26:05;;;;;;;49.67;28.25;;;;;;;6.44;100.00;100139.47;5107210;28;20461;-73
2024/02/21 05:28:30;;;;;;;50.85;30.75;;;;;;;6.50;100.00;100148.59;5104795;28;20035;-72
2024/02/21 05:30:56;;;;;;;48.15;29.67;;;;;;;6.48;100.00;100147.25;5108889;28;20462;-72
2024/02/21 05:33:21;;;;;;;45.60;29.45;;;;;;;6.50;100.00;100151.38;5089786;28;20034;-71
2024/02/21 05:35:50;;;;;;;48.20;28.27;;;;;;;6.67;100.00;100159.31;5107227;28;20028;-71
2024/02/21 05:38:16;;;;;;;60.67;33.85;;;;;;;6.74;100.00;100151.47;5109538;28;20044;-72
2024/02/21 05:40:41;;;;;;;70.65;37.08;;;;;;;6.71;100.00;100173.47;5090904;28;20046;-73
2024/02/21 05:43:08;;;;;;;60.20;34.22;;;;;;;6.56;100.00;100164.13;5075000;28;20032;-68
2024/02/21 05:45:33;;;;;;;51.90;33.63;;;;;;;6.60;100.00;100165.19;5099223;28;20028;-73
2024/02/21 05:47:59;;;;;;;56.90;33.05;;;;;;;6.57;100.00;100164.94;5106965;28;20457;-70
2024/02/21 05:50:26;;;;;;;73.15;34.70;;;;;;;6.66;100.00;100173.50;5109031;28;20030;-74
2024/02/21 05:52:52;;;;;;;82.53;40.63;;;;;;;6.63;100.00;100163.81;5109129;28;20023;-74
2024/02/21 05:55:18;;;;;;;59.58;26.65;;;;;;;6.60;100.00;100172.72;5092816;28;20035;-75
2024/02/21 05:57:44;;;;;;;59.45;28.45;;;;;;;6.55;100.00;100170.81;5092087;28;20039;-72
2024/02/21 06:00:09;;;;;;;51.33;27.73;;;;;;;6.49;100.00;100177.53;5092259;28;20032;-72
2024/02/21 06:02:35;;;;;;;76.10;42.15;;;;;;;6.46;100.00;100178.13;5097571;28;20424;-72
2024/02/21 06:05:01;;;;;;;51.50;27.58;;;;;;;6.46;100.00;100178.97;5090100;28;20043;-72
2024/02/21 06:07:26;;;;;;;40.03;22.13;;;;;;;6.57;100.00;100190.81;5094852;28;20027;-72
2024/02/21 06:09:51;;;;;;;42.38;24.70;;;;;;;6.42;100.00;100188.16;5086412;28;20032;-73
2024/02/21 06:12:17;;;;;;;44.97;24.60;;;;;;;6.49;100.00;100188.66;5096983;28;20031;-73
2024/02/21 06:14:42;;;;;;;37.22;22.50;;;;;;;6.50;100.00;100187.53;5106728;28;20032;-72
2024/02/21 06:17:08;;;;;;;30.88;19.08;;;;;;;6.52;100.00;100192.81;5090186;28;20335;-70
2024/02/21 06:19:33;;;;;;;30.25;18.20;;;;;;;6.60;100.00;100194.97;5071258;28;20032;-72
2024/02/21 06:21:59;;;;;;;30.17;18.30;;;;;;;6.83;100.00;100203.69;5093436;28;20561;-74
2024/02/21 06:24:24;;;;;;;30.85;17.55;;;;;;;6.85;100.00;100202.25;5107630;28;20522;-70
2024/02/21 06:26:50;;;;;;;31.05;20.85;;;;;;;6.97;100.00;100192.69;5090363;28;20434;-72
2024/02/21 06:29:15;;;;;;;48.30;28.67;;;;;;;6.97;100.00;100206.59;5090295;28;20027;-72
2024/02/21 06:31:41;;;;;;;43.35;26.58;;;;;;;6.98;100.00;100205.47;5106454;28;20039;-77
2024/02/21 06:34:07;;;;;;;50.50;27.02;;;;;;;6.91;100.00;100188.31;5108246;28;20473;-75
2024/02/21 06:36:32;;;;;;;48.15;28.30;;;;;;;7.04;100.00;100195.97;5091377;28;20039;-75
2024/02/21 06:38:58;;;;;;;59.00;28.33;;;;;;;7.19;100.00;100194.13;5108398;28;20037;-73
2024/02/21 06:41:24;;;;;;;55.33;34.78;;;;;;;7.07;100.00;100195.38;5107409;28;20161;-76
2024/02/21 06:43:50;;;;;;;56.17;30.70;;;;;;;7.15;100.00;100199.44;5088677;28;20146;-75
2024/02/21 06:46:25;;;;;;;50.97;29.83;;;;;;;7.24;100.00;100200.47;5105994;28;20046;-73
2024/02/21 06:48:51;;;;;;;51.65;29.70;;;;;;;7.26;100.00;100200.19;5111002;28;20035;-73
2024/02/21 06:51:16;;;;;;;51.45;29.38;;;;;;;7.02;100.00;100201.81;5109985;28;20035;-72
2024/02/21 06:53:43;;;;;;;56.60;29.65;;;;;;;7.07;100.00;100203.72;5092102;28;20033;-73
2024/02/21 06:56:09;;;;;;;48.15;29.42;;;;;;;7.21;100.00;100208.56;5110690;28;20023;-73
2024/02/21 06:58:35;;;;;;;52.60;29.02;;;;;;;7.29;100.00;100202.38;5111037;28;20047;-72
2024/02/21 07:01:01;;;;;;;54.15;26.65;;;;;;;7.33;100.00;100199.84;5111281;28;20038;-72
2024/02/21 07:03:27;;;;;;;57.33;27.90;;;;;;;7.37;100.00;100215.66;5094984;28;20027;-72
2024/02/21 07:05:52;;;;;;;47.45;27.80;;;;;;;7.45;100.00;100212.19;5072770;28;20028;-73
2024/02/21 07:08:18;;;;;;;55.63;28.75;;;;;;;7.38;100.00;100210.91;5106091;28;20110;-74
2024/02/21 07:10:43;;;;;;;49.45;27.63;;;;;;;7.49;100.00;100212.44;5091986;28;20093;-74
2024/02/21 07:13:09;;;;;;;49.70;26.60;;;;;;;7.64;100.00;100211.44;5109252;28;20032;-74
2024/02/21 07:15:36;;;;;;;42.15;27.95;;;;;;;7.55;100.00;100204.88;5110987;28;20027;-74
2024/02/21 07:18:01;;;;;;;53.22;31.40;;;;;;;7.52;100.00;100211.84;5111031;28;20045;-74
2024/02/21 07:20:27;;;;;;;55.13;32.35;;;;;;;7.72;100.00;100199.66;5091177;28;20618;-73
2024/02/21 07:22:52;;;;;;;37.50;23.38;;;;;;;7.69;100.00;100196.63;5112502;28;20027;-74
2024/02/21 07:25:18;;;;;;;55.25;35.05;;;;;;;7.76;100.00;100213.78;5112314;28;20027;-74
2024/02/21 07:27:45;;;;;;;39.85;25.33;;;;;;;7.83;100.00;100219.00;5093776;28;20031;-74
2024/02/21 07:30:10;;;;;;;39.83;23.25;;;;;;;8.13;100.00;100219.72;5105692;28;20111;-74
2024/02/21 07:32:36;;;;;;;35.72;20.92;;;;;;;8.09;100.00;100218.69;5093185;28;20114;-73
2024/02/21 07:35:01;;;;;;;26.98;16.95;;;;;;;7.95;100.00;100216.59;5092261;28;20031;-74
2024/02/21 07:37:27;;;;;;;29.08;17.45;;;;;;;7.92;100.00;100205.25;5110367;28;20504;-74
2024/02/21 07:39:52;;;;;;;16.88;12.05;;;;;;;7.94;99.76;100214.94;5091082;28;20059;-73
2024/02/21 07:42:18;;;;;;;22.52;12.27;;;;;;;8.15;98.78;100209.94;5091927;28;20491;-74
2024/02/21 07:44:43;;;;;;;20.98;13.20;;;;;;;8.26;99.17;100221.75;5092467;28;20415;-74
2024/02/21 07:47:08;;;;;;;21.13;13.48;;;;;;;8.35;98.79;100215.53;5090171;28;20419;-74
2024/02/21 07:49:41;;;;;;;25.67;16.70;;;;;;;8.28;97.42;100213.91;5110435;28;20097;-74
2024/02/21 07:52:07;;;;;;;22.95;14.82;;;;;;;8.15;98.32;100209.94;5089164;28;20035;-74
2024/02/21 07:54:33;;;;;;;22.85;13.18;;;;;;;8.35;99.70;100218.31;5110591;28;20095;-74
2024/02/21 07:56:58;;;;;;;18.88;12.48;;;;;;;8.26;97.75;100224.53;5091632;28;20206;-74
2024/02/21 07:59:23;;;;;;;16.80;11.68;;;;;;;8.48;96.91;100209.19;5099451;28;20031;-75
2024/02/21 08:01:49;;;;;;;19.48;12.40;;;;;;;8.59;96.79;100209.88;5095902;28;20062;-74
2024/02/21 08:04:14;;;;;;;18.58;11.95;;;;;;;8.46;93.82;100191.94;5110440;28;20031;-73
2024/02/21 08:06:40;;;;;;;16.17;10.65;;;;;;;8.65;92.82;100210.59;5109555;28;20046;-74
2024/02/21 08:09:05;;;;;;;14.43;10.45;;;;;;;8.75;93.88;100209.59;5089483;28;20038;-73
2024/02/21 08:11:31;;;;;;;20.35;14.02;;;;;;;8.84;93.60;100197.47;5106443;28;20031;-72
2024/02/21 08:13:57;;;;;;;20.98;14.75;;;;;;;8.95;94.01;100195.31;5089908;28;20544;-73
2024/02/21 08:16:23;;;;;;;22.67;14.40;;;;;;;9.19;92.34;100207.47;5107855;28;20019;-73
2024/02/21 08:18:48;;;;;;;23.70;15.43;;;;;;;9.43;92.64;100201.69;5104552;28;20096;-73
2024/02/21 08:21:14;;;;;;;19.52;12.77;;;;;;;9.44;88.87;100208.13;5104661;28;20300;-74
2024/02/21 08:23:39;;;;;;;20.88;13.20;;;;;;;9.45;87.94;100202.19;5086376;28;20031;-73
2024/02/21 08:26:05;;;;;;;16.48;11.07;;;;;;;9.52;87.59;100205.41;5097228;28;20024;-73
2024/02/21 08:28:31;;;;;;;16.92;11.88;;;;;;;9.67;87.51;100200.66;5092059;28;20473;-72
2024/02/21 08:30:56;;;;;;;19.25;11.57;;;;;;;9.79;86.65;100203.75;5093269;28;20169;-69
2024/02/21 08:33:24;;;;;;;27.77;16.25;;;;;;;9.98;85.39;100212.00;5107836;28;20407;-70
2024/02/21 08:35:51;;;;;;;18.65;11.70;;;;;;;10.25;84.71;100210.28;5108079;28;20404;-71
2024/02/21 08:38:17;;;;;;;21.67;11.38;;;;;;;10.29;81.75;100213.28;5090392;28;20419;-70
2024/02/21 08:40:43;;;;;;;21.30;11.65;;;;;;;10.58;80.66;100212.09;5082292;28;20119;-69
2024/02/21 08:43:08;;;;;;;22.48;12.15;;;;;;;10.81;79.41;100215.72;5097920;28;20027;-70
2024/02/21 08:45:34;;;;;;;28.80;11.73;;;;;;;10.64;80.18;100216.41;5105553;28;20113;-69
2024/02/21 08:47:59;;;;;;;27.13;11.73;;;;;;;10.64;79.78;100215.59;5097820;28;20024;-70
2024/02/21 08:50:25;;;;;;;18.67;12.18;;;;;;;10.82;77.77;100217.34;5090301;28;20027;-71
2024/02/21 08:52:50;;;;;;;20.77;13.57;;;;;;;10.77;79.37;100220.28;5088445;28;20472;-70
2024/02/21 08:55:16;;;;;;;20.02;10.75;;;;;;;10.61;77.80;100224.59;5109519;28;20015;-70
2024/02/21 08:57:41;;;;;;;23.27;11.75;;;;;;;10.78;79.70;100219.16;5109219;28;20055;-69
2024/02/21 09:00:10;;;;;;;18.35;12.25;;;;;;;10.91;77.05;100214.59;5101230;28;20107;-70
2024/02/21 09:02:42;;;;;;;19.30;12.32;;;;;;;11.28;76.12;100211.69;5089634;28;20034;-70
2024/02/21 09:05:08;;;;;;;17.90;12.45;;;;;;;11.27;76.76;100215.66;5089178;28;20042;-70
2024/02/21 09:07:33;;;;;;;16.98;11.98;;;;;;;11.26;75.43;100214.00;5090897;28;20118;-70
2024/02/21 09:09:59;;;;;;;25.08;12.95;;;;;;;11.21;74.45;100211.31;5086133;28;20412;-71
2024/02/21 09:12:25;;;;;;;18.90;11.40;;;;;;;11.41;72.54;100209.97;5071640;28;20112;-70
2024/02/21 09:14:50;;;;;;;16.13;11.18;;;;;;;10.81;74.45;100212.91;5095130;28;20511;-75
2024/02/21 09:17:20;;;;;;;22.20;11.88;;;;;;;10.92;74.97;100201.47;5095099;28;20134;-77
2024/02/21 09:19:46;;;;;;;15.75;10.68;;;;;;;10.97;75.70;100203.28;5089897;28;20027;-81
2024/02/21 09:22:12;;;;;;;14.25;9.70;;;;;;;11.22;72.48;100201.78;5089946;28;20055;-74
2024/02/21 09:24:37;;;;;;;18.45;12.27;;;;;;;11.27;74.59;100198.84;5071920;28;20024;-76
2024/02/21 09:27:03;;;;;;;15.35;10.73;;;;;;;11.32;70.29;100197.88;5096832;28;20028;-76
2024/02/21 09:29:28;;;;;;;14.88;10.02;;;;;;;11.18;71.40;100192.38;5092522;28;20024;-73
2024/02/21 09:31:54;;;;;;;20.13;11.05;;;;;;;11.48;72.26;100185.09;5109058;28;20412;-75
2024/02/21 09:34:19;;;;;;;16.67;10.15;;;;;;;11.81;72.02;100189.47;5110648;28;20026;-74
2024/02/21 09:36:44;;;;;;;15.07;9.75;;;;;;;12.16;67.94;100183.16;5096273;28;20016;-76
2024/02/21 09:39:17;;;;;;;12.32;8.57;;;;;;;11.94;66.80;100190.50;5078910;28;20035;-74
2024/02/21 09:41:52;;;;;;;14.82;10.63;;;;;;;12.40;66.01;100185.47;5099905;28;20107;-74
2024/02/21 09:44:19;;;;;;;13.35;9.02;;;;;;;12.55;65.67;100184.16;5097501;28;20019;-74
2024/02/21 09:46:54;;;;;;;12.98;9.95;;;;;;;12.89;64.87;100181.63;5078990;28;20020;-73
2024/02/21 09:49:38;;;;;;;11.85;8.15;;;;;;;12.43;64.71;100184.81;5089758;28;20035;-73
2024/02/21 09:52:07;;;;;;;14.52;9.70;;;;;;;12.72;63.14;100182.47;5089148;28;20035;-72
2024/02/21 09:54:35;;;;;;;14.55;9.10;;;;;;;12.58;63.61;100177.06;5108342;28;20019;-71
2024/02/21 09:57:02;;;;;;;11.13;8.02;;;;;;;12.27;61.93;100184.50;5110285;28;20039;-73
2024/02/21 09:59:29;;;;;;;16.25;9.60;;;;;;;12.44;62.64;100171.59;5087652;28;20051;-73
2024/02/21 10:01:55;;;;;;;12.38;8.43;;;;;;;12.69;63.36;100163.50;5089386;28;20024;-71
2024/02/21 10:04:21;;;;;;;9.77;8.30;;;;;;;13.17;60.52;100165.19;5088647;28;20027;-72
2024/02/21 10:06:46;;;;;;;11.43;8.43;;;;;;;13.02;61.35;100160.13;5107426;28;20020;-73
2024/02/21 10:09:28;;;;;;;13.55;9.27;;;;;;;12.57;60.09;100152.97;5107920;28;20476;-71
2024/02/21 10:12:18;;;;;;;12.05;8.95;;;;;;;12.81;62.43;100168.44;5106772;28;20031;-71
2024/02/21 10:14:44;;;;;;;;;;;;;;;12.59;58.25;100159.88;5108317;28;20026;-73
2024/02/21 10:17:18;;;;;;;16.20;9.88;;;;;;;12.23;60.72;100149.00;5107759;28;19912;-72
2024/02/21 10:19:43;;;;;;;14.20;8.60;;;;;;;12.90;62.78;100138.34;5088116;28;20517;-72
2024/02/21 10:22:09;;;;;;;14.40;7.57;;;;;;;12.92;61.36;100147.28;5105831;28;20057;-71
2024/02/21 10:24:37;;;;;;;12.20;8.32;;;;;;;13.14;59.26;100142.56;5102238;28;20024;-73
2024/02/21 10:27:05;;;;;;;16.42;10.82;;;;;;;12.92;58.15;100119.19;5107334;28;20024;-72
2024/02/21 10:29:37;;;;;;;12.18;8.38;;;;;;;12.81;60.66;100126.34;5089394;28;20128;-71
2024/02/21 10:32:13;;;;;;;27.38;10.73;;;;;;;12.87;61.57;100119.38;5108771;28;20028;-71
2024/02/21 10:34:40;;;;;;;14.95;8.90;;;;;;;13.36;60.28;100118.19;5109975;28;20020;-71
2024/02/21 10:37:10;;;;;;;11.32;7.43;;;;;;;13.66;56.95;100115.41;5110034;28;20020;-71
2024/02/21 10:39:38;;;;;;;10.35;7.28;;;;;;;12.79;56.32;100104.19;5109361;28;20098;-71
2024/02/21 10:42:04;;;;;;;13.20;8.38;;;;;;;13.21;56.75;100103.56;5109969;28;20415;-71
2024/02/21 10:44:32;;;;;;;13.32;7.07;;;;;;;13.05;56.06;100095.69;5109869;28;20111;-71
2024/02/21 10:46:58;;;;;;;11.50;8.13;;;;;;;13.54;55.86;100093.66;5109816;28;20069;-71
2024/02/21 10:49:26;;;;;;;9.25;6.20;;;;;;;13.30;55.36;100095.91;5091431;28;20567;-71
2024/02/21 10:51:59;;;;;;;9.88;6.57;;;;;;;13.58;54.92;100083.41;5109748;28;20506;-72
2024/02/21 10:54:33;;;;;;;14.50;8.30;;;;;;;13.81;52.51;100080.25;5109339;28;20027;-72
2024/02/21 10:57:02;;;;;;;19.48;12.27;;;;;;;14.27;52.68;100080.38;5109159;28;20837;-72
2024/02/21 10:59:30;;;;;;;40.55;9.60;;;;;;;14.87;52.09;100080.09;5109520;28;20047;-72
2024/02/21 11:01:55;;;;;;;16.15;10.40;;;;;;;15.03;51.22;100068.97;5109496;28;20032;-72
2024/02/21 11:04:21;;;;;;;11.25;6.75;;;;;;;15.01;49.40;100068.50;5109373;28;20028;-72
2024/02/21 11:06:48;;;;;;;11.77;6.35;;;;;;;14.05;48.05;100065.50;5106655;28;20076;-71
2024/02/21 11:09:14;;;;;;;5.57;4.03;;;;;;;13.69;47.25;100058.50;5109565;28;20038;-71